Time;durP1;ratioP1;P1;durP2;ratioP2;P2;SDS_P1;SDS_P2;PMS_P1;PMS_P2;Temp;Humidity;BMP_temperature;BMP_pressure;BME280_temperature;BME280_humidity;BME280_pressure;Samples;Min_cycle;Max_cycle;Signal;HPM_P1;HPM_P2
2023/04/11 00:00:07;;;;;;;4.17;1.40;;;;;;;8.48;100.00;100193.56;698668;28;956;-58
2023/04/11 00:00:32;;;;;;;3.60;1.45;;;;;;;8.44;100.00;100197.84;698393;28;824;-58
2023/04/11 00:00:52;;;;;;;4.38;1.50;;;;;;;8.46;100.00;100196.16;697109;28;4595;-58
2023/04/11 00:01:13;;;;;;;4.28;1.50;;;;;;;8.46;100.00;100200.50;699999;28;785;-58
2023/04/11 00:01:33;;;;;;;3.70;1.50;;;;;;;8.43;100.00;100190.06;699001;28;969;-58
2023/04/11 00:01:53;;;;;;;3.42;1.40;;;;;;;8.37;100.00;100198.75;699383;28;865;-58
2023/04/11 00:02:14;;;;;;;3.37;1.30;;;;;;;8.36;100.00;100197.03;699601;28;801;-57
2023/04/11 00:02:37;;;;;;;3.42;1.30;;;;;;;8.38;100.00;100191.81;699289;28;1541;-58
2023/04/11 00:03:00;;;;;;;3.22;1.30;;;;;;;8.41;100.00;100195.28;699814;28;1323;-58
2023/04/11 00:03:21;;;;;;;3.38;1.30;;;;;;;8.41;100.00;100203.09;699644;28;907;-58
2023/04/11 00:03:41;;;;;;;3.23;1.30;;;;;;;8.35;100.00;100198.78;701634;28;4740;-58
2023/04/11 00:04:02;;;;;;;3.03;1.20;;;;;;;8.36;100.00;100194.41;703695;28;943;-58
2023/04/11 00:04:24;;;;;;;3.80;1.40;;;;;;;8.38;100.00;100195.28;700555;28;1146;-58
2023/04/11 00:04:44;;;;;;;4.57;1.45;;;;;;;8.35;100.00;100201.38;699963;28;1472;-58
2023/04/11 00:05:05;;;;;;;4.80;1.40;;;;;;;8.31;100.00;100196.19;697135;28;1606;-58
2023/04/11 00:05:26;;;;;;;5.10;1.50;;;;;;;8.30;100.00;100194.44;697030;28;832;-58
2023/04/11 00:05:47;;;;;;;4.70;1.50;;;;;;;8.27;100.00;100194.47;697244;28;1681;-59
2023/04/11 00:06:07;;;;;;;4.30;1.30;;;;;;;8.35;100.00;100192.72;698199;28;1185;-57
2023/04/11 00:06:28;;;;;;;4.10;1.40;;;;;;;8.32;100.00;100196.19;699798;28;876;-58
2023/04/11 00:06:48;;;;;;;3.63;1.40;;;;;;;8.28;100.00;100198.78;699717;28;4515;-57
2023/04/11 00:07:09;;;;;;;4.40;1.50;;;;;;;8.26;100.00;100197.94;699484;28;1537;-58
2023/04/11 00:07:29;;;;;;;3.83;1.35;;;;;;;8.26;100.00;100204.00;699736;28;861;-58
2023/04/11 00:07:50;;;;;;;5.22;1.42;;;;;;;8.29;100.00;100203.13;700065;28;1502;-58
2023/04/11 00:08:10;;;;;;;4.77;1.57;;;;;;;8.37;100.00;100197.91;699499;28;865;-58
2023/04/11 00:08:31;;;;;;;8.52;1.88;;;;;;;8.43;100.00;100201.38;699450;28;963;-58
2023/04/11 00:08:51;;;;;;;8.00;1.90;;;;;;;8.49;100.00;100197.91;700054;28;1518;-57
2023/04/11 00:09:12;;;;;;;3.60;1.60;;;;;;;8.45;100.00;100202.25;702340;28;896;-57
2023/04/11 00:09:33;;;;;;;3.70;1.38;;;;;;;8.40;100.00;100203.94;701834;28;1212;-58
2023/04/11 00:09:53;;;;;;;3.37;1.30;;;;;;;8.30;100.00;100207.47;701534;28;4589;-57
2023/04/11 00:10:13;;;;;;;5.13;1.45;;;;;;;8.31;100.00;100199.66;703044;28;768;-58
2023/04/11 00:10:34;;;;;;;4.67;1.43;;;;;;;8.33;100.00;100197.94;702970;28;1485;-58
2023/04/11 00:10:54;;;;;;;2.45;1.20;;;;;;;8.36;100.00;100199.63;703544;28;935;-57
2023/04/11 00:11:15;;;;;;;3.17;1.20;;;;;;;8.39;100.00;100194.44;702256;28;888;-58
2023/04/11 00:11:35;;;;;;;5.10;1.40;;;;;;;8.35;100.00;100196.16;702102;28;1597;-57
2023/04/11 00:11:56;;;;;;;3.47;1.30;;;;;;;8.40;100.00;100198.75;702709;28;797;-58
2023/04/11 00:12:16;;;;;;;3.50;1.20;;;;;;;8.44;100.00;100194.41;703266;28;849;-58
2023/04/11 00:12:37;;;;;;;4.57;1.23;;;;;;;8.43;100.00;100192.66;702036;28;4544;-57
2023/04/11 00:12:57;;;;;;;4.10;1.50;;;;;;;8.42;100.00;100197.00;702753;28;861;-58
2023/04/11 00:13:18;;;;;;;4.40;1.40;;;;;;;8.41;100.00;100191.81;702565;28;901;-57
2023/04/11 00:13:38;;;;;;;4.50;1.37;;;;;;;8.37;100.00;100193.56;702805;28;1521;-57
2023/04/11 00:13:59;;;;;;;4.03;1.30;;;;;;;8.45;100.00;100196.19;701209;28;1232;-57
2023/04/11 00:14:19;;;;;;;3.77;1.20;;;;;;;8.48;100.00;100197.00;701226;28;1918;-57
2023/04/11 00:14:44;;;;;;;3.85;1.40;;;;;;;8.42;100.00;100202.22;701011;28;1573;-57
2023/04/11 00:15:05;;;;;;;3.72;1.17;;;;;;;8.42;100.00;100194.41;698332;28;1235;-57
2023/04/11 00:15:25;;;;;;;4.00;1.30;;;;;;;8.43;100.00;100195.25;698085;28;995;-57
2023/04/11 00:15:46;;;;;;;3.88;1.38;;;;;;;8.38;100.00;100197.91;696764;28;5296;-57
2023/04/11 00:16:08;;;;;;;3.92;1.42;;;;;;;8.36;100.00;100197.03;700399;28;967;-57
2023/04/11 00:16:29;;;;;;;2.95;1.40;;;;;;;8.39;100.00;100206.56;699546;28;3467;-58
2023/04/11 00:16:52;;;;;;;3.57;1.40;;;;;;;8.34;100.00;100207.44;699760;28;1446;-57
2023/04/11 00:17:13;;;;;;;3.28;1.35;;;;;;;8.33;100.00;100205.75;701236;28;765;-57
2023/04/11 00:17:36;;;;;;;2.92;1.40;;;;;;;8.31;100.00;100211.81;699935;28;825;-57
2023/04/11 00:17:57;;;;;;;4.90;1.33;;;;;;;8.29;100.00;100211.81;699814;28;1030;-57
2023/04/11 00:18:17;;;;;;;4.45;1.27;;;;;;;8.26;100.00;100206.59;700945;28;1317;-57
2023/04/11 00:18:38;;;;;;;4.30;1.30;;;;;;;8.25;100.00;100214.41;701152;28;4391;-57
2023/04/11 00:18:59;;;;;;;3.33;1.30;;;;;;;8.28;100.00;100211.81;700883;28;950;-55
2023/04/11 00:19:24;;;;;;;3.67;1.40;;;;;;;8.26;100.00;100206.59;699830;28;964;-58
2023/04/11 00:19:45;;;;;;;3.47;1.58;;;;;;;8.22;100.00;100214.44;700108;28;1615;-58
2023/04/11 00:20:06;;;;;;;3.72;1.40;;;;;;;8.17;100.00;100211.84;700589;28;1075;-58
2023/04/11 00:20:27;;;;;;;4.55;1.50;;;;;;;8.22;100.00;100210.06;697604;28;1351;-57
2023/04/11 00:20:47;;;;;;;3.83;1.33;;;;;;;8.29;100.00;100210.94;696579;28;975;-57
2023/04/11 00:21:09;;;;;;;3.22;1.23;;;;;;;8.25;100.00;100211.81;698455;28;1074;-57
2023/04/11 00:21:29;;;;;;;4.05;1.40;;;;;;;8.21;100.00;100212.69;698712;28;1006;-57
2023/04/11 00:21:49;;;;;;;4.00;1.40;;;;;;;8.25;100.00;100210.09;697136;28;4566;-57
2023/04/11 00:22:10;;;;;;;3.17;1.30;;;;;;;8.27;100.00;100203.13;698622;28;975;-57
2023/04/11 00:22:32;;;;;;;3.60;1.30;;;;;;;8.26;100.00;100206.59;699915;28;956;-57
2023/04/11 00:22:52;;;;;;;5.13;1.50;;;;;;;8.24;100.00;100215.28;701148;28;1115;-57
2023/04/11 00:23:13;;;;;;;4.63;1.43;;;;;;;8.21;100.00;100204.88;701381;28;959;-57
2023/04/11 00:23:33;;;;;;;5.13;1.47;;;;;;;8.26;100.00;100210.94;701401;28;906;-57
2023/04/11 00:23:54;;;;;;;5.20;1.23;;;;;;;8.30;100.00;100207.47;700610;28;1140;-57
2023/04/11 00:24:15;;;;;;;5.05;1.17;;;;;;;8.28;100.00;100214.41;699900;28;927;-56
2023/04/11 00:24:35;;;;;;;3.85;1.30;;;;;;;8.29;100.00;100211.81;699861;28;4551;-56
2023/04/11 00:24:56;;;;;;;4.45;1.50;;;;;;;8.26;100.00;100206.59;699336;28;932;-57
2023/04/11 00:25:16;;;;;;;3.83;1.50;;;;;;;8.23;100.00;100203.16;698971;28;981;-57
2023/04/11 00:25:36;;;;;;;4.33;1.30;;;;;;;8.21;100.00;100203.16;699520;28;1470;-58
2023/04/11 00:25:57;;;;;;;3.65;1.30;;;;;;;8.19;100.00;100199.69;696667;28;897;-57
2023/04/11 00:26:17;;;;;;;3.70;1.40;;;;;;;8.34;100.00;100194.44;697160;28;1233;-56
2023/04/11 00:26:38;;;;;;;3.90;1.30;;;;;;;8.36;100.00;100194.41;696974;28;1790;-57
2023/04/11 00:26:58;;;;;;;3.73;1.20;;;;;;;8.30;100.00;100191.84;696737;28;900;-57
2023/04/11 00:27:19;;;;;;;3.93;1.30;;;;;;;8.29;100.00;100190.09;697581;28;879;-57
2023/04/11 00:27:39;;;;;;;4.23;1.70;;;;;;;8.35;100.00;100188.34;696536;28;4310;-57
2023/04/11 00:28:00;;;;;;;3.65;1.38;;;;;;;8.33;100.00;100184.00;700385;28;1107;-58
2023/04/11 00:28:20;;;;;;;3.00;1.23;;;;;;;8.30;100.00;100182.28;700987;28;918;-57
2023/04/11 00:28:40;;;;;;;5.77;1.40;;;;;;;8.37;100.00;100188.34;698814;28;1725;-59
2023/04/11 00:29:01;;;;;;;5.50;1.33;;;;;;;8.42;100.00;100186.59;700147;28;1319;-57
2023/04/11 00:29:21;;;;;;;4.88;1.30;;;;;;;8.47;100.00;100182.28;700714;28;947;-57
2023/04/11 00:29:41;;;;;;;4.37;1.27;;;;;;;8.45;100.00;100181.41;699707;28;1475;-57
2023/04/11 00:30:04;;;;;;;6.22;1.45;;;;;;;8.46;100.00;100193.56;700048;28;1083;-57
2023/04/11 00:30:24;;;;;;;6.05;1.40;;;;;;;8.48;100.00;100188.34;697956;28;1003;-57
2023/04/11 00:30:44;;;;;;;4.17;1.30;;;;;;;8.49;100.00;100182.28;699209;28;4603;-57
2023/04/11 00:31:05;;;;;;;3.33;1.25;;;;;;;8.52;100.00;100179.66;700308;28;828;-58
2023/04/11 00:31:26;;;;;;;4.43;1.60;;;;;;;8.46;100.00;100179.66;701166;28;865;-57
2023/04/11 00:31:46;;;;;;;5.77;1.60;;;;;;;8.39;100.00;100177.91;698920;28;1555;-57
2023/04/11 00:32:06;;;;;;;4.53;1.30;;;;;;;8.35;100.00;100179.69;698217;28;1020;-57
2023/04/11 00:32:27;;;;;;;5.30;1.37;;;;;;;8.35;100.00;100182.28;699225;28;908;-57
2023/04/11 00:32:50;;;;;;;4.63;1.40;;;;;;;8.37;100.00;100187.50;695546;28;1593;-56
2023/04/11 00:33:10;;;;;;;4.28;1.50;;;;;;;8.31;100.00;100184.03;695722;28;1554;-57
2023/04/11 00:33:31;;;;;;;4.33;1.60;;;;;;;8.36;100.00;100186.59;694167;28;1061;-57
2023/04/11 00:33:51;;;;;;;3.63;1.50;;;;;;;8.37;100.00;100183.13;691391;28;4308;-57
2023/04/11 00:34:12;;;;;;;3.77;1.30;;;;;;;8.33;100.00;100186.63;695366;28;1990;-57
2023/04/11 00:34:33;;;;;;;4.70;1.60;;;;;;;8.30;100.00;100186.63;692377;28;1522;-57
2023/04/11 00:34:54;;;;;;;4.63;1.67;;;;;;;8.24;100.00;100186.63;690262;28;873;-57
2023/04/11 00:35:14;;;;;;;4.63;1.42;;;;;;;8.24;100.00;100186.63;693074;28;915;-57
2023/04/11 00:35:36;;;;;;;5.27;1.47;;;;;;;8.22;100.00;100185.78;695413;28;1564;-57
2023/04/11 00:35:57;;;;;;;5.82;1.58;;;;;;;8.21;100.00;100191.84;697954;28;822;-57
2023/04/11 00:36:17;;;;;;;4.95;1.38;;;;;;;8.18;100.00;100187.53;696142;28;1113;-57
2023/04/11 00:36:40;;;;;;;5.47;1.50;;;;;;;8.16;100.00;100187.53;697998;28;4574;-57
2023/04/11 00:37:01;;;;;;;4.88;1.40;;;;;;;8.18;100.00;100197.94;698719;28;1540;-57
2023/04/11 00:37:21;;;;;;;5.00;1.50;;;;;;;8.15;100.00;100183.19;697703;28;955;-57
2023/04/11 00:37:43;;;;;;;5.03;1.60;;;;;;;8.13;100.00;100187.53;698007;28;1431;-57
2023/04/11 00:38:03;;;;;;;6.00;1.60;;;;;;;8.10;100.00;100184.94;695159;28;1267;-57
2023/04/11 00:38:24;;;;;;;4.28;1.80;;;;;;;8.07;100.00;100190.19;692675;28;1443;-57
2023/04/11 00:38:45;;;;;;;4.07;1.50;;;;;;;8.05;100.00;100185.84;696071;28;5253;-57
2023/04/11 00:39:05;;;;;;;5.30;1.50;;;;;;;8.13;100.00;100189.28;692983;28;1274;-57
2023/04/11 00:39:29;;;;;;;5.65;1.63;;;;;;;8.12;100.00;100183.19;692925;28;900;-57
2023/04/11 00:39:51;;;;;;;6.30;1.75;;;;;;;8.22;100.00;100188.41;691308;28;4597;-57
2023/04/11 00:40:17;;;;;;;5.22;1.58;;;;;;;8.19;100.00;100187.50;691173;28;900;-57
2023/04/11 00:40:37;;;;;;;5.22;1.50;;;;;;;8.16;100.00;100184.94;693543;28;1484;-57
2023/04/11 00:40:57;;;;;;;4.35;1.50;;;;;;;8.16;100.00;100184.94;698382;28;796;-57
2023/04/11 00:41:18;;;;;;;5.30;1.70;;;;;;;8.19;100.00;100190.13;702497;28;1353;-57
2023/04/11 00:41:39;;;;;;;4.90;1.60;;;;;;;8.22;100.00;100184.03;699116;28;1482;-57
2023/04/11 00:42:04;;;;;;;6.53;1.45;;;;;;;8.26;100.00;100184.91;698687;28;852;-57
2023/04/11 00:42:24;;;;;;;6.90;1.90;;;;;;;8.33;100.00;100178.81;694763;28;1170;-57
2023/04/11 00:42:45;;;;;;;6.72;1.77;;;;;;;8.27;100.00;100186.66;694639;28;4422;-57
2023/04/11 00:43:05;;;;;;;6.07;1.47;;;;;;;8.21;100.00;100184.94;695815;28;896;-57
2023/04/11 00:43:25;;;;;;;7.03;1.67;;;;;;;8.20;100.00;100185.78;695311;28;986;-57
2023/04/11 00:43:46;;;;;;;6.10;1.80;;;;;;;8.21;100.00;100178.84;696084;28;1495;-57
2023/04/11 00:44:07;;;;;;;5.53;1.50;;;;;;;8.23;100.00;100179.72;697169;28;971;-58
2023/04/11 00:44:27;;;;;;;3.53;1.23;;;;;;;8.24;100.00;100182.31;699579;28;928;-58
2023/04/11 00:44:48;;;;;;;3.45;1.30;;;;;;;8.23;100.00;100185.78;699714;28;1032;-57
2023/04/11 00:45:09;;;;;;;4.70;1.60;;;;;;;8.26;100.00;100187.50;698241;28;1296;-58
2023/04/11 00:45:29;;;;;;;4.43;1.38;;;;;;;8.30;100.00;100182.28;695829;28;865;-58
2023/04/11 00:45:50;;;;;;;5.13;1.48;;;;;;;8.27;100.00;100189.25;694379;28;4316;-58
2023/04/11 00:46:10;;;;;;;6.38;1.55;;;;;;;8.22;100.00;100185.78;692813;28;889;-57
2023/04/11 00:46:32;;;;;;;6.80;1.50;;;;;;;8.24;100.00;100181.44;692877;28;909;-58
2023/04/11 00:46:52;;;;;;;4.80;1.42;;;;;;;8.27;100.00;100181.44;693097;28;1590;-58
2023/04/11 00:47:13;;;;;;;4.17;1.50;;;;;;;8.24;100.00;100182.31;695572;28;821;-58
2023/04/11 00:47:34;;;;;;;4.57;1.23;;;;;;;8.18;100.00;100183.19;693997;28;1186;-58
2023/04/11 00:47:55;;;;;;;5.50;1.30;;;;;;;8.14;100.00;100189.28;694119;28;1087;-58
2023/04/11 00:48:16;;;;;;;6.95;1.70;;;;;;;8.11;100.00;100186.69;697774;28;1473;-58
2023/04/11 00:48:37;;;;;;;5.43;1.60;;;;;;;8.07;100.00;100184.97;694516;28;4488;-58
2023/04/11 00:48:57;;;;;;;5.15;1.70;;;;;;;8.05;100.00;100183.25;694857;28;849;-58
2023/04/11 00:49:18;;;;;;;5.55;2.13;;;;;;;8.08;100.00;100178.88;694411;28;1209;-58
2023/04/11 00:49:39;;;;;;;7.00;2.80;;;;;;;8.08;100.00;100183.22;691562;28;1531;-58
2023/04/11 00:50:00;;;;;;;7.22;2.33;;;;;;;8.06;100.00;100187.53;689693;28;952;-58
2023/04/11 00:50:23;;;;;;;5.13;1.75;;;;;;;8.12;100.00;100185.81;689852;28;1261;-58
2023/04/11 00:50:44;;;;;;;5.00;1.90;;;;;;;8.19;100.00;100194.47;691683;28;1656;-58
2023/04/11 00:51:05;;;;;;;6.22;2.17;;;;;;;8.15;100.00;100195.34;692529;28;995;-58
2023/04/11 00:51:27;;;;;;;6.47;1.95;;;;;;;8.15;100.00;100193.59;696316;28;917;-58
2023/04/11 00:51:47;;;;;;;5.55;1.70;;;;;;;8.26;100.00;100195.31;693746;28;4433;-58
2023/04/11 00:52:08;;;;;;;6.23;1.50;;;;;;;8.29;100.00;100188.38;696158;28;864;-58
2023/04/11 00:52:29;;;;;;;6.68;1.58;;;;;;;8.34;100.00;100190.97;696270;28;1094;-58
2023/04/11 00:52:51;;;;;;;8.05;1.65;;;;;;;8.28;100.00;100193.56;698176;28;1448;-57
2023/04/11 00:53:12;;;;;;;5.78;1.70;;;;;;;8.23;100.00;100179.72;700847;28;998;-58
2023/04/11 00:53:36;;;;;;;7.43;2.05;;;;;;;8.20;100.00;100188.41;701084;28;940;-58
2023/04/11 00:53:56;;;;;;;6.68;2.20;;;;;;;8.25;100.00;100188.38;698501;28;975;-57
2023/04/11 00:54:17;;;;;;;6.23;2.10;;;;;;;8.32;100.00;100190.97;698633;28;1922;-58
2023/04/11 00:54:39;;;;;;;6.90;2.03;;;;;;;8.32;100.00;100190.97;695334;28;4325;-58
2023/04/11 00:55:02;;;;;;;5.60;2.00;;;;;;;8.34;100.00;100185.75;693329;28;1250;-58
2023/04/11 00:55:22;;;;;;;5.82;1.60;;;;;;;8.30;100.00;100186.63;693476;28;948;-57
2023/04/11 00:55:43;;;;;;;6.82;1.60;;;;;;;8.25;100.00;100189.25;693737;28;1508;-58
2023/04/11 00:56:04;;;;;;;5.77;1.80;;;;;;;8.20;100.00;100191.00;700113;28;1629;-57
2023/04/11 00:56:24;;;;;;;5.85;1.90;;;;;;;8.18;100.00;100191.00;700887;28;935;-58
2023/04/11 00:56:44;;;;;;;6.72;1.80;;;;;;;8.13;100.00;100195.34;700473;28;1579;-58
2023/04/11 00:57:06;;;;;;;6.20;1.87;;;;;;;8.11;100.00;100196.22;700243;28;828;-57
2023/04/11 00:57:27;;;;;;;5.93;1.60;;;;;;;8.18;100.00;100191.00;697129;28;1334;-58
2023/04/11 00:57:47;;;;;;;6.73;2.47;;;;;;;8.18;100.00;100184.91;697970;28;4398;-58
2023/04/11 00:58:08;;;;;;;7.72;2.45;;;;;;;8.21;100.00;100186.66;701322;28;963;-57
2023/04/11 00:58:28;;;;;;;5.88;1.88;;;;;;;8.19;100.00;100190.13;698778;28;1278;-57
2023/04/11 00:58:49;;;;;;;5.77;1.83;;;;;;;8.22;100.00;100193.59;698647;28;1652;-58
2023/04/11 00:59:09;;;;;;;8.73;2.00;;;;;;;8.22;100.00;100189.25;698838;28;829;-58
2023/04/11 00:59:31;;;;;;;6.57;1.83;;;;;;;8.19;100.00;100192.72;699598;28;1192;-57
2023/04/11 00:59:52;;;;;;;6.28;2.00;;;;;;;8.28;100.00;100193.56;698125;28;2060;-58
2023/04/11 01:00:13;;;;;;;6.88;2.25;;;;;;;8.25;100.00;100188.38;694388;28;1453;-57
2023/04/11 01:00:34;;;;;;;6.68;2.70;;;;;;;8.28;100.00;100190.97;697377;28;899;-58
2023/04/11 01:00:54;;;;;;;7.35;2.80;;;;;;;8.26;100.00;100190.13;695521;28;4323;-58
2023/04/11 01:01:15;;;;;;;8.82;3.75;;;;;;;8.27;100.00;100181.44;693122;28;1002;-58
2023/04/11 01:01:37;;;;;;;10.53;4.60;;;;;;;8.27;100.00;100190.09;694559;28;1585;-58
2023/04/11 01:01:58;;;;;;;10.75;4.45;;;;;;;8.23;100.00;100192.75;694955;28;904;-57
2023/04/11 01:02:18;;;;;;;11.40;3.75;;;;;;;8.14;100.00;100191.00;694370;28;877;-58
2023/04/11 01:02:41;;;;;;;9.13;3.10;;;;;;;8.13;100.00;100190.16;694801;28;1148;-58
2023/04/11 01:03:02;;;;;;;8.10;3.05;;;;;;;8.19;100.00;100190.13;696539;28;884;-57
2023/04/11 01:03:22;;;;;;;8.65;2.83;;;;;;;8.29;100.00;100187.50;696904;28;765;-57
2023/04/11 01:03:44;;;;;;;8.80;3.40;;;;;;;8.32;100.00;100184.88;696751;28;4292;-57
2023/04/11 01:04:07;;;;;;;8.75;3.50;;;;;;;8.28;100.00;100181.44;700595;28;817;-57
2023/04/11 01:04:31;;;;;;;7.80;2.42;;;;;;;8.25;100.00;100178.84;697526;28;888;-58
2023/04/11 01:04:52;;;;;;;6.10;2.03;;;;;;;8.26;100.00;100182.31;699511;28;1565;-57
2023/04/11 01:05:13;;;;;;;6.70;2.00;;;;;;;8.22;100.00;100178.84;699566;28;951;-58
2023/04/11 01:05:35;;;;;;;6.32;1.70;;;;;;;8.21;100.00;100177.13;700447;28;782;-58
2023/04/11 01:05:55;;;;;;;5.10;1.75;;;;;;;8.30;100.00;100181.44;699150;28;884;-58
2023/04/11 01:06:18;;;;;;;7.72;2.10;;;;;;;8.26;100.00;100187.50;701182;28;983;-57
2023/04/11 01:06:40;;;;;;;6.82;1.92;;;;;;;8.25;100.00;100185.78;699642;28;4395;-57
2023/04/11 01:07:07;;;;;;;6.10;1.80;;;;;;;8.32;100.00;100185.75;697995;28;916;-58
2023/04/11 01:07:30;;;;;;;8.52;1.85;;;;;;;8.30;100.00;100181.44;699783;28;858;-57
2023/04/11 01:07:51;;;;;;;8.40;1.88;;;;;;;8.30;100.00;100184.03;700442;28;1552;-57
2023/04/11 01:08:13;;;;;;;7.15;1.67;;;;;;;8.29;100.00;100184.91;699114;28;1981;-58
2023/04/11 01:08:35;;;;;;;6.30;1.80;;;;;;;8.39;100.00;100191.81;699125;28;1022;-58
2023/04/11 01:08:58;;;;;;;6.10;1.65;;;;;;;8.37;100.00;100192.69;698982;28;856;-57
2023/04/11 01:09:20;;;;;;;6.85;1.60;;;;;;;8.35;100.00;100184.88;700563;28;814;-57
2023/04/11 01:09:41;;;;;;;6.20;1.90;;;;;;;8.33;100.00;100184.00;697582;28;4358;-58
2023/04/11 01:10:04;;;;;;;6.65;1.80;;;;;;;8.40;100.00;100177.06;697222;28;1598;-58
2023/04/11 01:10:29;;;;;;;6.30;1.77;;;;;;;8.37;100.00;100177.94;697623;28;968;-57
2023/04/11 01:10:50;;;;;;;5.28;1.63;;;;;;;8.35;100.00;100182.28;694184;28;1578;-57
2023/04/11 01:11:12;;;;;;;6.20;1.95;;;;;;;8.41;100.00;100178.78;692231;28;1310;-58
2023/04/11 01:11:33;;;;;;;5.85;2.33;;;;;;;8.37;100.00;100185.75;693527;28;937;-58
2023/04/11 01:11:53;;;;;;;7.30;2.35;;;;;;;8.33;100.00;100182.28;696828;28;1609;-58
2023/04/11 01:12:15;;;;;;;7.57;2.05;;;;;;;8.32;100.00;100185.75;696052;28;834;-58
2023/04/11 01:12:37;;;;;;;6.70;1.88;;;;;;;8.30;100.00;100187.50;693623;28;4425;-57
2023/04/11 01:12:59;;;;;;;5.13;1.80;;;;;;;8.32;100.00;100182.28;696800;28;1031;-58
2023/04/11 01:13:19;;;;;;;5.03;1.67;;;;;;;8.41;100.00;100182.25;695734;28;951;-58
2023/04/11 01:13:41;;;;;;;6.22;1.80;;;;;;;8.40;100.00;100188.31;695713;28;1858;-58
2023/04/11 01:14:02;;;;;;;8.32;1.92;;;;;;;8.35;100.00;100175.31;692601;28;1167;-58
2023/04/11 01:14:24;;;;;;;6.63;1.83;;;;;;;8.32;100.00;100170.13;695227;28;1976;-58
2023/04/11 01:14:46;;;;;;;5.95;1.92;;;;;;;8.44;100.00;100179.63;695918;28;1440;-58
2023/04/11 01:15:07;;;;;;;6.70;2.00;;;;;;;8.49;100.00;100184.88;699437;28;983;-57
2023/04/11 01:15:28;;;;;;;5.63;1.80;;;;;;;8.45;100.00;100178.78;699810;28;848;-58
2023/04/11 01:15:48;;;;;;;7.37;1.80;;;;;;;8.41;100.00;100176.19;700026;28;4413;-58
2023/04/11 01:16:09;;;;;;;6.65;1.80;;;;;;;8.37;100.00;100169.25;703105;28;797;-57
2023/04/11 01:16:29;;;;;;;6.05;1.85;;;;;;;8.34;100.00;100176.19;700166;28;1165;-58
2023/04/11 01:16:50;;;;;;;7.60;2.50;;;;;;;8.30;100.00;100173.63;700440;28;946;-58
2023/04/11 01:17:13;;;;;;;7.75;1.98;;;;;;;8.32;100.00;100179.66;700109;28;754;-57
2023/04/11 01:17:33;;;;;;;6.85;2.15;;;;;;;8.31;100.00;100175.34;700565;28;832;-58
2023/04/11 01:17:56;;;;;;;7.30;1.90;;;;;;;8.26;100.00;100166.69;700511;28;1473;-57
2023/04/11 01:18:16;;;;;;;6.40;2.00;;;;;;;8.29;100.00;100169.28;698417;28;1409;-58
2023/04/11 01:18:37;;;;;;;6.68;1.80;;;;;;;8.28;100.00;100177.94;697408;28;4735;-58
2023/04/11 01:18:58;;;;;;;7.40;2.07;;;;;;;8.38;100.00;100176.19;696251;28;1200;-58
2023/04/11 01:19:20;;;;;;;6.97;1.90;;;;;;;8.35;100.00;100175.31;693049;28;1202;-57
2023/04/11 01:19:41;;;;;;;7.38;2.00;;;;;;;8.43;100.00;100177.03;692907;28;1503;-58
2023/04/11 01:20:01;;;;;;;8.25;2.00;;;;;;;8.51;100.00;100172.69;692431;28;853;-57
2023/04/11 01:20:22;;;;;;;8.23;1.90;;;;;;;8.41;100.00;100169.22;692701;28;1470;-58
2023/04/11 01:20:42;;;;;;;7.95;2.00;;;;;;;8.35;100.00;100169.25;691419;28;1489;-57
2023/04/11 01:21:03;;;;;;;9.07;2.27;;;;;;;8.28;100.00;100167.53;695767;28;892;-58
2023/04/11 01:21:25;;;;;;;7.90;2.28;;;;;;;8.37;100.00;100158.84;697320;28;1123;-58
2023/04/11 01:21:49;;;;;;;11.25;4.10;;;;;;;8.30;100.00;100166.66;695863;28;4374;-57
2023/04/11 01:22:13;;;;;;;11.45;4.28;;;;;;;8.23;100.00;100153.69;697054;28;880;-57
2023/04/11 01:22:36;;;;;;;8.77;2.85;;;;;;;8.16;100.00;100158.88;699589;28;927;-58
2023/04/11 01:23:00;;;;;;;11.55;3.30;;;;;;;8.14;100.00;100159.75;700148;28;857;-58
2023/04/11 01:23:24;;;;;;;9.93;3.33;;;;;;;8.25;100.00;100162.34;700782;28;1177;-58
2023/04/11 01:23:47;;;;;;;11.80;3.15;;;;;;;8.18;100.00;100159.75;701240;28;1456;-57
2023/04/11 01:24:08;;;;;;;9.88;2.78;;;;;;;8.24;100.00;100160.59;698480;28;1391;-57
2023/04/11 01:24:28;;;;;;;10.65;2.97;;;;;;;8.22;100.00;100163.22;696097;28;1261;-57
2023/04/11 01:24:49;;;;;;;11.68;3.50;;;;;;;8.19;100.00;100160.63;696974;28;4573;-57
2023/04/11 01:25:10;;;;;;;9.80;3.60;;;;;;;8.18;100.00;100158.88;696166;28;1833;-58
2023/04/11 01:25:30;;;;;;;9.23;3.67;;;;;;;8.16;100.00;100164.09;693499;28;1374;-58
2023/04/11 01:25:51;;;;;;;10.00;3.67;;;;;;;8.12;100.00;100164.97;694885;28;1474;-58
2023/04/11 01:26:11;;;;;;;10.85;2.90;;;;;;;8.15;100.00;100166.72;695823;28;966;-58
2023/04/11 01:26:31;;;;;;;9.33;2.80;;;;;;;8.09;100.00;100162.38;694855;28;1741;-57
2023/04/11 01:26:53;;;;;;;9.73;2.80;;;;;;;8.06;100.00;100162.41;695496;28;1550;-58
2023/04/11 01:27:14;;;;;;;8.70;2.60;;;;;;;8.06;100.00;100162.41;696991;28;1704;-58
2023/04/11 01:27:36;;;;;;;10.00;2.57;;;;;;;8.08;100.00;100160.66;698729;28;1282;-58
2023/04/11 01:27:57;;;;;;;7.85;2.60;;;;;;;8.16;100.00;100166.69;699624;28;4865;-58
2023/04/11 01:28:18;;;;;;;8.33;2.80;;;;;;;8.12;100.00;100157.16;697007;28;1223;-56
2023/04/11 01:28:38;;;;;;;9.93;2.78;;;;;;;8.06;100.00;100162.41;696447;28;1498;-58
2023/04/11 01:28:59;;;;;;;9.07;2.60;;;;;;;8.06;100.00;100162.41;697460;28;1343;-57
2023/04/11 01:29:20;;;;;;;10.47;2.43;;;;;;;8.08;100.00;100160.66;698811;28;959;-58
2023/04/11 01:29:40;;;;;;;10.50;2.72;;;;;;;8.10;100.00;100169.34;695691;28;1443;-57
2023/04/11 01:30:00;;;;;;;8.70;3.37;;;;;;;8.11;100.00;100164.97;696154;28;1070;-58
2023/04/11 01:30:21;;;;;;;11.15;3.75;;;;;;;8.12;100.00;100161.50;696435;28;1237;-58
2023/04/11 01:30:42;;;;;;;13.80;3.90;;;;;;;8.08;100.00;100167.59;697721;28;4426;-58
2023/04/11 01:31:02;;;;;;;10.60;3.97;;;;;;;8.13;100.00;100164.13;699093;28;808;-57
2023/04/11 01:31:23;;;;;;;9.40;3.40;;;;;;;8.08;100.00;100167.59;696259;28;1161;-58
2023/04/11 01:31:43;;;;;;;11.40;3.53;;;;;;;8.07;100.00;100161.53;696632;28;1519;-58
2023/04/11 01:32:05;;;;;;;11.30;3.15;;;;;;;8.18;100.00;100164.09;695022;28;1436;-58
2023/04/11 01:32:25;;;;;;;9.77;3.00;;;;;;;8.14;100.00;100167.56;698319;28;789;-58
2023/04/11 01:32:45;;;;;;;10.83;3.37;;;;;;;8.10;100.00;100164.13;693947;28;1773;-58
2023/04/11 01:33:06;;;;;;;11.13;3.57;;;;;;;8.04;100.00;100164.13;694538;28;1492;-57
2023/04/11 01:33:27;;;;;;;10.98;3.50;;;;;;;8.05;100.00;100162.41;697548;28;1106;-58
2023/04/11 01:33:47;;;;;;;13.10;3.10;;;;;;;8.07;100.00;100161.53;695647;28;4755;-57
2023/04/11 01:34:11;;;;;;;8.65;2.97;;;;;;;8.05;100.00;100168.47;697165;28;888;-57
2023/04/11 01:34:34;;;;;;;8.63;2.83;;;;;;;8.05;100.00;100165.88;697386;28;1910;-58
2023/04/11 01:34:57;;;;;;;11.20;3.30;;;;;;;8.01;100.00;100169.34;697887;28;1553;-57
2023/04/11 01:35:18;;;;;;;10.77;3.10;;;;;;;7.96;100.00;100168.47;700158;28;1124;-58
2023/04/11 01:35:38;;;;;;;9.60;2.45;;;;;;;7.90;100.00;100164.16;701346;28;1478;-62
2023/04/11 01:35:59;;;;;;;9.87;2.70;;;;;;;7.89;100.00;100161.56;699969;28;827;-58
2023/04/11 01:36:20;;;;;;;8.75;2.65;;;;;;;7.91;100.00;100163.28;701107;28;836;-58
2023/04/11 01:36:41;;;;;;;9.05;2.58;;;;;;;7.92;100.00;100166.75;697444;28;4460;-58
2023/04/11 01:37:02;;;;;;;9.52;2.50;;;;;;;7.93;100.00;100166.75;697632;28;999;-58
2023/04/11 01:37:23;;;;;;;8.70;2.63;;;;;;;7.96;100.00;100178.88;698574;28;753;-58
2023/04/11 01:37:43;;;;;;;9.68;2.50;;;;;;;8.05;100.00;100165.88;699061;28;1555;-59
2023/04/11 01:38:04;;;;;;;9.70;2.40;;;;;;;8.07;100.00;100164.16;697447;28;897;-59
2023/04/11 01:38:25;;;;;;;9.43;2.55;;;;;;;8.06;100.00;100164.13;698606;28;844;-58
2023/04/11 01:38:45;;;;;;;10.23;2.80;;;;;;;8.09;100.00;100162.38;697048;28;5211;-58
2023/04/11 01:39:08;;;;;;;11.10;2.63;;;;;;;8.13;100.00;100171.06;697147;28;955;-58
2023/04/11 01:39:29;;;;;;;10.00;2.40;;;;;;;8.10;100.00;100169.34;698244;28;970;-58
2023/04/11 01:39:50;;;;;;;10.05;2.55;;;;;;;8.15;100.00;100167.56;697820;28;4504;-58
2023/04/11 01:40:13;;;;;;;10.73;3.20;;;;;;;8.15;100.00;100159.75;694665;28;839;-58
2023/04/11 01:40:34;;;;;;;11.57;2.83;;;;;;;8.19;100.00;100158.00;696602;28;908;-59
2023/04/11 01:40:56;;;;;;;9.87;2.40;;;;;;;8.18;100.00;100162.38;694452;28;1565;-58